createdAt,value
2018-03-24T00:00:18.646Z,3.43
2018-03-24T00:01:03.735Z,3.55
2018-03-24T00:03:04.046Z,3.5
2018-03-24T00:04:04.052Z,3.5
2018-03-24T00:05:03.801Z,3.61
2018-03-24T00:06:03.814Z,3.5
2018-03-24T00:07:18.744Z,3.5
2018-03-24T00:08:18.790Z,3.5
2018-03-24T00:09:04.121Z,3.6
2018-03-24T00:10:03.875Z,3.55
2018-03-24T00:11:03.889Z,3.54
2018-03-24T00:12:03.906Z,3.45
2018-03-24T00:13:03.931Z,3.43
2018-03-24T00:14:03.939Z,3.5
2018-03-24T00:15:18.606Z,3.51
2018-03-24T00:16:04.227Z,3.51
2018-03-24T00:17:03.978Z,3.54
2018-03-24T00:18:03.994Z,3.51
2018-03-24T00:19:04.273Z,3.52
2018-03-24T00:20:04.028Z,3.5
2018-03-24T00:21:04.039Z,3.58
2018-03-24T00:22:03.798Z,3.5
2018-03-24T00:23:04.072Z,3.54
2018-03-24T00:24:18.999Z,3.5
2018-03-24T00:25:19.012Z,3.45
2018-03-24T00:26:04.378Z,3.47
2018-03-24T00:27:04.391Z,3.31
2018-03-24T00:28:04.141Z,3.47
2018-03-24T00:29:04.417Z,3.4
2018-03-24T00:30:04.435Z,3.45
2018-03-24T00:31:04.451Z,3.43
2018-03-24T00:32:04.207Z,3.4
2018-03-24T00:33:19.141Z,3.48
2018-03-24T00:34:04.492Z,3.47
2018-03-24T00:35:04.248Z,3.48
2018-03-24T00:36:04.527Z,3.45
2018-03-24T00:37:04.277Z,3.35
2018-03-24T00:38:04.293Z,3.43
2018-03-24T00:39:04.306Z,3.47
2018-03-24T00:40:19.237Z,3.52
2018-03-24T00:41:04.603Z,3.4
2018-03-24T00:42:04.357Z,3.39
2018-03-24T00:43:04.420Z,3.33
2018-03-24T00:44:04.385Z,3.36
2018-03-24T00:45:04.665Z,3.33
2018-03-24T00:46:04.419Z,3.33
2018-03-24T00:47:19.342Z,3.36
2018-03-24T00:48:04.446Z,3.33
2018-03-24T00:49:04.715Z,3.4
2018-03-24T00:51:04.765Z,3.36
2018-03-24T00:52:04.509Z,3.33
2018-03-24T00:53:04.780Z,3.32
2018-03-24T00:54:04.533Z,3.33
2018-03-24T00:56:04.853Z,3.32
2018-03-24T00:57:04.896Z,3.31
2018-03-24T00:59:04.869Z,3.26
2018-03-24T01:00:04.361Z,3.23
2018-03-24T01:01:04.375Z,3.31
2018-03-24T01:02:04.915Z,3.24
2018-03-24T01:03:19.583Z,3.26
2018-03-24T01:04:04.421Z,3.28
2018-03-24T01:05:04.698Z,3.32
2018-03-24T01:06:19.630Z,3.33
2018-03-24T01:07:04.988Z,3.35
2018-03-24T01:08:04.737Z,3.31
2018-03-24T01:09:05.010Z,3.28
2018-03-24T01:10:19.685Z,3.28
2018-03-24T01:11:04.525Z,3.31
2018-03-24T01:12:05.060Z,3.32
2018-03-24T01:13:05.082Z,3.33
2018-03-24T01:14:04.825Z,3.35
2018-03-24T01:15:04.843Z,3.35
2018-03-24T01:16:05.115Z,3.39
2018-03-24T01:17:04.871Z,3.36
2018-03-24T01:18:05.146Z,3.28
2018-03-24T01:19:19.816Z,3.31
2018-03-24T01:20:04.913Z,3.31
2018-03-24T01:21:05.189Z,3.32
2018-03-24T01:22:05.204Z,3.32
2018-03-24T01:23:19.880Z,3.35
2018-03-24T01:24:19.894Z,3.32
2018-03-24T01:25:05.249Z,3.39
2018-03-24T01:26:05.019Z,3.35
2018-03-24T01:27:05.278Z,3.31
2018-03-24T01:28:05.301Z,3.33
2018-03-24T01:29:19.707Z,3.23
2018-03-24T01:30:05.339Z,3.31
2018-03-24T01:31:05.084Z,3.32
2018-03-24T01:32:05.099Z,3.33
2018-03-24T01:33:05.365Z,3.33
2018-03-24T01:34:05.451Z,3.33
2018-03-24T01:35:20.052Z,3.35
2018-03-24T01:36:05.414Z,3.35
2018-03-24T01:37:05.430Z,3.33
2018-03-24T01:38:05.451Z,3.31
2018-03-24T01:39:05.456Z,3.32
2018-03-24T01:40:05.210Z,3.36
2018-03-24T01:41:05.229Z,3.43
2018-03-24T01:42:05.240Z,3.33
2018-03-24T01:44:05.371Z,3.33
2018-03-24T01:45:05.026Z,3.32
2018-03-24T01:46:05.041Z,3.33
2018-03-24T01:47:05.314Z,3.35
2018-03-24T01:48:05.592Z,3.26
2018-03-24T01:49:05.347Z,3.32
2018-03-24T01:50:20.276Z,3.31
2018-03-24T01:51:05.115Z,3.29
2018-03-24T01:52:05.492Z,3.32
2018-03-24T01:53:05.404Z,3.28
2018-03-24T01:54:05.428Z,3.33
2018-03-24T01:55:05.697Z,3.32
2018-03-24T01:56:05.446Z,3.32
2018-03-24T01:57:05.723Z,3.26
2018-03-24T01:58:05.478Z,3.24
2018-03-24T01:59:05.754Z,3.32
2018-03-24T02:00:20.166Z,3.32
2018-03-24T02:01:05.784Z,3.31
2018-03-24T02:02:05.641Z,3.32
2018-03-24T02:03:05.820Z,3.26
2018-03-24T02:05:05.842Z,3.26
2018-03-24T02:06:05.854Z,3.31
2018-03-24T02:07:05.611Z,3.31
2018-03-24T02:08:05.626Z,3.33
2018-03-24T02:10:05.919Z,3.28
2018-03-24T02:11:20.589Z,3.29
2018-03-24T02:12:05.685Z,3.31
2018-03-24T02:13:05.702Z,3.23
2018-03-24T02:14:05.976Z,3.18
2018-03-24T02:15:05.468Z,3.28
2018-03-24T02:16:06.016Z,3.2
2018-03-24T02:17:05.760Z,3.29
2018-03-24T02:19:05.530Z,3.33
2018-03-24T02:20:06.082Z,3.36
2018-03-24T02:21:05.815Z,3.33
2018-03-24T02:24:06.123Z,3.32
2018-03-24T02:25:06.137Z,3.35
2018-03-24T02:26:06.165Z,3.32
2018-03-24T02:27:05.908Z,3.31
2018-03-24T02:28:05.923Z,3.36
2018-03-24T02:29:05.936Z,3.33
2018-03-24T02:30:06.228Z,3.24
2018-03-24T02:31:05.984Z,3.26
2018-03-24T02:32:06.250Z,3.28
2018-03-24T02:33:20.930Z,3.2
2018-03-24T02:34:06.274Z,3.29
2018-03-24T02:35:06.027Z,3.21
2018-03-24T02:36:06.414Z,3.23
2018-03-24T02:37:05.800Z,3.26
2018-03-24T02:38:21.003Z,3.2
2018-03-24T02:39:06.367Z,3.2
2018-03-24T02:40:06.364Z,3.26
2018-03-24T02:41:06.384Z,3.4
2018-03-24T02:42:06.139Z,3.31
2018-03-24T02:43:06.410Z,3.26
2018-03-24T02:45:06.460Z,3.32
2018-03-24T02:46:06.463Z,3.21
2018-03-24T02:47:06.466Z,3.23
2018-03-24T02:48:06.496Z,3.2
2018-03-24T02:49:06.239Z,3.26
2018-03-24T02:50:06.258Z,3.29
2018-03-24T02:51:06.281Z,3.2
2018-03-24T02:52:21.202Z,3.23
2018-03-24T02:53:06.294Z,3.28
2018-03-24T02:55:06.321Z,3.4
2018-03-24T02:56:06.077Z,3.21
2018-03-24T02:57:06.610Z,3.21
2018-03-24T02:58:06.206Z,3.24
2018-03-24T02:59:06.394Z,3.21
2018-03-24T03:00:06.661Z,3.23
2018-03-24T03:01:06.674Z,3.32
2018-03-24T03:02:06.699Z,3.23
2018-03-24T03:03:06.441Z,3.18
2018-03-24T03:04:06.464Z,3.2
2018-03-24T03:05:21.129Z,3.21
2018-03-24T03:07:06.760Z,3.18
2018-03-24T03:08:06.517Z,3.21
2018-03-24T03:09:06.801Z,3.18
2018-03-24T03:12:06.834Z,3.15
2018-03-24T03:13:06.844Z,3.21
2018-03-24T03:14:06.867Z,3.1
2018-03-24T03:15:06.616Z,3.2
2018-03-24T03:17:21.563Z,3.2
2018-03-24T03:18:06.921Z,3.2
2018-03-24T03:19:06.933Z,3.23
2018-03-24T03:20:06.949Z,3.2
2018-03-24T03:21:06.702Z,3.17
2018-03-24T03:22:07.045Z,3.18
2018-03-24T03:23:06.993Z,3.17
2018-03-24T03:24:06.490Z,3.21
2018-03-24T03:25:21.681Z,3.15
2018-03-24T03:26:06.778Z,3.11
2018-03-24T03:27:07.084Z,3.06
2018-03-24T03:28:06.851Z,3.14
2018-03-24T03:29:06.826Z,3.11
2018-03-24T03:30:07.100Z,3.08
2018-03-24T03:32:21.791Z,3.15
2018-03-24T03:33:06.938Z,3.1
2018-03-24T03:34:06.637Z,3.17
2018-03-24T03:35:06.914Z,3.18
2018-03-24T03:36:06.927Z,3.14
2018-03-24T03:37:07.200Z,3.18
2018-03-24T03:38:06.703Z,3.15
2018-03-24T03:39:06.985Z,3.05
2018-03-24T03:40:07.245Z,3.15
2018-03-24T03:41:07.264Z,3.08
2018-03-24T03:42:07.273Z,3.13
2018-03-24T03:43:07.290Z,3.14
2018-03-24T03:44:07.308Z,3.15
2018-03-24T03:45:07.057Z,3.17
2018-03-24T03:46:07.074Z,3.1
2018-03-24T03:47:07.089Z,3.21
2018-03-24T03:48:07.102Z,3.18
2018-03-24T03:49:07.378Z,3.1
2018-03-24T03:50:07.132Z,3.11
2018-03-24T03:51:21.806Z,3.17
2018-03-24T03:52:07.424Z,3.21
2018-03-24T03:53:07.175Z,3.2
2018-03-24T03:54:07.195Z,3.26
2018-03-24T03:55:07.473Z,3.31
2018-03-24T03:56:07.483Z,3.31
2018-03-24T03:58:07.510Z,3.18
2018-03-24T03:59:07.271Z,3.24
2018-03-24T04:00:07.282Z,3.18
2018-03-24T04:01:22.214Z,3.17
2018-03-24T04:02:07.567Z,3.15
2018-03-24T04:03:07.594Z,3.24
2018-03-24T04:04:07.597Z,3.2
2018-03-24T04:05:07.097Z,3.2
2018-03-24T04:06:07.109Z,3.21
2018-03-24T04:07:07.641Z,3.18
2018-03-24T04:08:07.659Z,3.15
2018-03-24T04:09:07.412Z,3.15
2018-03-24T04:10:07.429Z,3.03
2018-03-24T04:11:07.440Z,3.05
2018-03-24T04:12:07.455Z,3.15
2018-03-24T04:14:07.744Z,3.21
2018-03-24T04:15:07.503Z,3.17
2018-03-24T04:17:07.790Z,3.1
2018-03-24T04:18:07.812Z,3.1
2018-03-24T04:20:22.492Z,3.06
2018-03-24T04:21:07.347Z,3.15
2018-03-24T04:22:07.604Z,3.11
2018-03-24T04:23:07.891Z,3.28
2018-03-24T04:24:07.895Z,3.11
2018-03-24T04:25:07.654Z,3.21
2018-03-24T04:26:07.922Z,3.13
2018-03-24T04:27:07.676Z,3.18
2018-03-24T04:28:07.692Z,3.14
2018-03-24T04:29:22.627Z,3.18
2018-03-24T04:30:07.986Z,3.18
2018-03-24T04:32:08.009Z,3.23
2018-03-24T04:33:07.765Z,3.18
2018-03-24T04:34:07.787Z,3.18
2018-03-24T04:36:07.809Z,3.18
2018-03-24T04:37:08.084Z,3.06
2018-03-24T04:38:07.837Z,3.11
2018-03-24T04:39:07.852Z,3.17
2018-03-24T04:40:07.613Z,3.14
2018-03-24T04:41:07.883Z,3.18
2018-03-24T04:42:07.896Z,3.05
2018-03-24T04:43:08.171Z,3.13
2018-03-24T04:44:07.667Z,3.17
2018-03-24T04:46:08.216Z,3.15
2018-03-24T04:47:08.229Z,3.18
2018-03-24T04:48:08.247Z,3.1
2018-03-24T04:49:08.269Z,3.1
2018-03-24T04:50:08.016Z,3.03
2018-03-24T04:51:08.297Z,3.05
2018-03-24T04:52:22.961Z,3.15
2018-03-24T04:53:08.319Z,3.06
2018-03-24T04:54:08.075Z,3.06
2018-03-24T04:55:08.093Z,3.13
2018-03-24T04:56:08.364Z,3.08
2018-03-24T04:57:08.377Z,3.05
2018-03-24T04:58:08.396Z,3.02
2018-03-24T04:59:08.147Z,3.1
2018-03-24T05:00:23.078Z,3.17
2018-03-24T05:01:08.436Z,3.14
2018-03-24T05:02:07.987Z,3.15
2018-03-24T05:04:23.141Z,3.13
2018-03-24T05:05:08.235Z,3.21
2018-03-24T05:06:08.506Z,3.1
2018-03-24T05:07:08.524Z,3.18
2018-03-24T05:08:23.195Z,3.17
2018-03-24T05:09:08.562Z,3.15
2018-03-24T05:10:08.573Z,3.13
2018-03-24T05:11:08.581Z,3.11
2018-03-24T05:12:08.598Z,3.1
2018-03-24T05:13:08.618Z,3.18
2018-03-24T05:14:08.367Z,3.08
2018-03-24T05:15:08.642Z,3.13
2018-03-24T05:16:08.666Z,3.11
2018-03-24T05:17:08.666Z,3.14
2018-03-24T05:18:08.684Z,3.08
2018-03-24T05:19:08.699Z,3.08
2018-03-24T05:20:08.721Z,3.13
2018-03-24T05:21:08.468Z,3.11
2018-03-24T05:22:08.741Z,3.17
2018-03-24T05:24:23.430Z,3.17
2018-03-24T05:25:08.788Z,3.18
2018-03-24T05:26:23.201Z,3.15
2018-03-24T05:27:08.826Z,3.17
2018-03-24T05:28:08.833Z,3.21
2018-03-24T05:29:08.856Z,3.14
2018-03-24T05:30:08.881Z,3.21
2018-03-24T05:31:08.614Z,3.17
2018-03-24T05:33:08.903Z,3.18
2018-03-24T05:34:08.662Z,3.28
2018-03-24T05:35:08.933Z,3.15
2018-03-24T05:36:08.689Z,3.2
2018-03-24T05:37:08.964Z,3.17
2018-03-24T05:38:09.079Z,3.18
2018-03-24T05:39:09.138Z,3.17
2018-03-24T05:40:23.665Z,3.2
2018-03-24T05:41:09.026Z,3.2
2018-03-24T05:42:09.043Z,3.23
2018-03-24T05:43:09.050Z,3.18
2018-03-24T05:44:08.548Z,3.2
2018-03-24T05:45:09.079Z,3.24
2018-03-24T05:46:08.577Z,3.15
2018-03-24T05:47:09.109Z,3.21
2018-03-24T05:48:23.781Z,3.29
2018-03-24T05:49:09.139Z,3.32
2018-03-24T05:50:09.157Z,3.35
2018-03-24T05:51:09.177Z,3.33
2018-03-24T05:52:09.183Z,3.42
2018-03-24T05:53:08.950Z,3.33
2018-03-24T05:54:23.877Z,3.33
2018-03-24T05:55:23.900Z,3.35
2018-03-24T05:56:09.244Z,3.29
2018-03-24T05:57:23.914Z,3.35
2018-03-24T05:58:09.273Z,3.36
2018-03-24T05:59:09.286Z,3.31
2018-03-24T06:00:09.044Z,3.42
2018-03-24T06:01:08.798Z,3.4
2018-03-24T06:02:09.349Z,3.4
2018-03-24T06:03:09.088Z,3.42
2018-03-24T06:04:24.023Z,3.48
2018-03-24T06:05:09.377Z,3.51
2018-03-24T06:06:09.391Z,3.47
2018-03-24T06:07:09.404Z,3.47
2018-03-24T06:08:08.903Z,3.52
2018-03-24T06:09:09.174Z,3.58
2018-03-24T06:10:09.191Z,3.62
2018-03-24T06:11:09.205Z,3.6
2018-03-24T06:12:09.484Z,3.58
2018-03-24T06:13:09.493Z,3.55
2018-03-24T06:14:09.517Z,3.52
2018-03-24T06:15:09.528Z,3.62
2018-03-24T06:16:09.550Z,3.52
2018-03-24T06:17:09.555Z,3.62
2018-03-24T06:18:09.571Z,3.6
2018-03-24T06:19:09.324Z,3.57
2018-03-24T06:20:24.255Z,3.61
2018-03-24T06:21:09.613Z,3.65
2018-03-24T06:22:09.758Z,3.58
2018-03-24T06:24:09.658Z,3.73
2018-03-24T06:25:09.417Z,3.78
2018-03-24T06:27:09.707Z,3.68
2018-03-24T06:28:24.376Z,3.73
2018-03-24T06:29:09.733Z,3.75
2018-03-24T06:30:09.746Z,3.73
2018-03-24T06:31:09.765Z,3.69
2018-03-24T06:32:09.519Z,3.83
2018-03-24T06:33:09.791Z,3.72
2018-03-24T06:34:09.815Z,3.69
2018-03-24T06:35:24.480Z,3.72
2018-03-24T06:36:09.843Z,3.6
2018-03-24T06:37:09.857Z,3.75
2018-03-24T06:38:09.927Z,3.72
2018-03-24T06:39:09.884Z,3.73
2018-03-24T06:40:09.897Z,3.7
2018-03-24T06:41:09.912Z,3.75
2018-03-24T06:42:09.670Z,3.72
2018-03-24T06:43:09.943Z,3.79
2018-03-24T06:44:09.696Z,3.83
2018-03-24T06:45:09.976Z,3.8
2018-03-24T06:46:09.469Z,3.79
2018-03-24T06:47:10.009Z,3.9
2018-03-24T06:48:10.034Z,3.91
2018-03-24T06:49:10.032Z,3.93
2018-03-24T06:50:10.050Z,3.91
2018-03-24T06:51:10.064Z,3.9
2018-03-24T06:52:09.932Z,3.97
2018-03-24T06:53:10.096Z,4.02
2018-03-24T06:54:10.107Z,4.04
2018-03-24T06:55:09.864Z,4.09
2018-03-24T06:56:09.881Z,4.11
2018-03-24T06:57:10.155Z,4.18
2018-03-24T06:58:09.908Z,4.2
2018-03-24T06:59:10.188Z,4.24
2018-03-24T07:00:10.201Z,4.23
2018-03-24T07:01:10.216Z,4.27
2018-03-24T07:02:10.231Z,4.32
2018-03-24T07:03:09.989Z,4.34
2018-03-24T07:04:10.260Z,4.27
2018-03-24T07:05:10.287Z,4.3
2018-03-24T07:06:10.295Z,4.36
2018-03-24T07:07:24.963Z,4.34
2018-03-24T07:09:10.339Z,4.34
2018-03-24T07:10:10.090Z,4.34
2018-03-24T07:11:10.367Z,4.45
2018-03-24T07:12:10.383Z,4.36
2018-03-24T07:13:10.142Z,4.4
2018-03-24T07:14:10.154Z,4.34
2018-03-24T07:15:24.926Z,4.4
2018-03-24T07:16:10.447Z,4.51
2018-03-24T07:17:10.459Z,4.48
2018-03-24T07:18:10.473Z,4.36
2018-03-24T07:19:10.488Z,4.3
2018-03-24T07:20:10.508Z,4.33
2018-03-24T07:21:10.522Z,4.34
2018-03-24T07:22:10.275Z,4.37
2018-03-24T07:23:25.208Z,4.32
2018-03-24T07:24:10.567Z,4.36
2018-03-24T07:25:10.582Z,4.44
2018-03-24T07:26:10.600Z,4.47
2018-03-24T07:27:10.355Z,4.59
2018-03-24T07:28:10.369Z,4.59
2018-03-24T07:29:10.390Z,4.59
2018-03-24T07:30:10.661Z,4.62
2018-03-24T07:31:10.674Z,4.6
2018-03-24T07:32:10.690Z,4.7
2018-03-24T07:33:10.710Z,4.67
2018-03-24T07:35:10.734Z,4.65
2018-03-24T07:36:10.232Z,4.77
2018-03-24T07:37:10.764Z,4.7
2018-03-24T07:38:10.784Z,4.66
2018-03-24T07:39:25.460Z,4.73
2018-03-24T07:40:10.818Z,4.72
2018-03-24T07:41:10.833Z,4.67
2018-03-24T07:42:10.844Z,4.78
2018-03-24T07:43:10.341Z,4.67
2018-03-24T07:44:10.876Z,4.77
2018-03-24T07:45:25.549Z,4.86
2018-03-24T07:46:10.911Z,4.78
2018-03-24T07:47:10.667Z,4.89
2018-03-24T07:48:25.593Z,4.91
2018-03-24T07:49:10.961Z,5.03
2018-03-24T07:50:10.971Z,5.02
2018-03-24T07:52:10.479Z,5.1
2018-03-24T07:53:11.023Z,5.1
2018-03-24T07:54:11.033Z,5.12
2018-03-24T07:55:25.704Z,5.15
2018-03-24T07:56:11.064Z,5.13
2018-03-24T07:57:11.084Z,5.15
2018-03-24T07:58:11.169Z,5.25
2018-03-24T07:59:11.115Z,5.25
2018-03-24T08:00:10.870Z,5.27
2018-03-24T08:01:25.803Z,5.36
2018-03-24T08:02:11.172Z,5.35
2018-03-24T08:03:11.174Z,5.43
2018-03-24T08:04:11.312Z,5.39
2018-03-24T08:05:11.214Z,5.38
2018-03-24T08:06:10.965Z,5.42
2018-03-24T08:07:11.239Z,5.38
2018-03-24T08:08:11.255Z,5.39
2018-03-24T08:09:11.274Z,5.45
2018-03-24T08:10:25.942Z,5.43
2018-03-24T08:11:11.301Z,5.48
2018-03-24T08:12:10.799Z,5.54
2018-03-24T08:13:11.072Z,5.56
2018-03-24T08:14:11.089Z,5.46
2018-03-24T08:15:11.382Z,5.56
2018-03-24T08:16:11.127Z,5.53
2018-03-24T08:17:11.137Z,5.51
2018-03-24T08:18:11.412Z,5.61
2018-03-24T08:19:11.430Z,5.61
2018-03-24T08:20:11.187Z,5.6
2018-03-24T08:21:11.461Z,5.65
2018-03-24T08:22:11.218Z,5.68
2018-03-24T08:24:11.508Z,5.76
2018-03-24T08:26:11.292Z,5.79
2018-03-24T08:27:11.299Z,5.68
2018-03-24T08:28:11.573Z,5.72
2018-03-24T08:29:11.330Z,5.64
2018-03-24T08:30:11.360Z,5.65
2018-03-24T08:31:11.624Z,5.78
2018-03-24T08:32:11.641Z,5.81
2018-03-24T08:33:26.330Z,5.83
2018-03-24T08:34:11.669Z,5.86
2018-03-24T08:35:11.697Z,5.86
2018-03-24T08:36:11.447Z,5.78
2018-03-24T08:37:11.720Z,5.81
2018-03-24T08:38:11.734Z,5.9
2018-03-24T08:40:11.774Z,5.96
2018-03-24T08:41:11.789Z,6.01
2018-03-24T08:42:26.207Z,6.08
2018-03-24T08:43:11.881Z,6.14
2018-03-24T08:44:11.837Z,6.09
2018-03-24T08:45:11.851Z,6.18
2018-03-24T08:46:11.872Z,6.14
2018-03-24T08:47:11.726Z,6.09
2018-03-24T08:48:11.909Z,6.15
2018-03-24T08:49:11.921Z,6.18
2018-03-24T08:50:11.415Z,6.15
2018-03-24T08:51:11.955Z,6.17
2018-03-24T08:52:11.975Z,6.3
2018-03-24T08:53:11.725Z,6.25
2018-03-24T08:54:11.743Z,6.37
2018-03-24T08:55:11.760Z,6.49
2018-03-24T08:56:12.035Z,6.58
2018-03-24T08:57:12.054Z,6.66
2018-03-24T08:58:26.730Z,6.44
2018-03-24T08:59:11.828Z,6.43
2018-03-24T09:00:12.109Z,6.41
2018-03-24T09:01:12.124Z,6.31
2018-03-24T09:02:12.201Z,6.34
2018-03-24T09:03:11.893Z,6.46
2018-03-24T09:04:11.916Z,6.38
2018-03-24T09:05:26.844Z,6.64
2018-03-24T09:06:12.203Z,6.69
2018-03-24T09:07:11.960Z,6.66
2018-03-24T09:08:12.238Z,6.67
2018-03-24T09:09:12.252Z,6.62
2018-03-24T09:10:12.270Z,6.51
2018-03-24T09:11:12.286Z,6.67
2018-03-24T09:12:12.307Z,6.81
2018-03-24T09:13:12.325Z,6.77
2018-03-24T09:14:26.736Z,6.8
2018-03-24T09:15:12.449Z,6.71
2018-03-24T09:16:12.114Z,6.79
2018-03-24T09:18:27.066Z,6.8
2018-03-24T09:19:12.425Z,6.66
2018-03-24T09:20:27.099Z,6.62
2018-03-24T09:21:27.115Z,6.58
2018-03-24T09:22:27.131Z,6.62
2018-03-24T09:23:12.490Z,6.66
2018-03-24T09:24:12.508Z,6.74
2018-03-24T09:25:12.521Z,6.8
2018-03-24T09:26:12.540Z,6.91
2018-03-24T09:27:12.300Z,6.88
2018-03-24T09:28:12.579Z,6.91
2018-03-24T09:29:12.591Z,6.98
2018-03-24T09:32:12.647Z,7.28
2018-03-24T09:35:27.357Z,6.87
2018-03-24T09:36:12.721Z,6.89
2018-03-24T09:38:12.748Z,6.92
2018-03-24T09:39:12.506Z,6.95
2018-03-24T09:40:27.438Z,6.8
2018-03-24T09:41:12.542Z,6.76
2018-03-24T09:42:12.817Z,6.88
2018-03-24T09:43:12.578Z,6.95
2018-03-24T09:45:27.528Z,7.12
2018-03-24T09:46:12.897Z,7.17
2018-03-24T09:47:12.966Z,7.25
2018-03-24T09:48:12.931Z,7.25
2018-03-24T09:49:12.681Z,7.24
2018-03-24T09:50:12.962Z,7.28
2018-03-24T09:51:12.976Z,7.09
2018-03-24T09:52:12.747Z,6.92
2018-03-24T09:53:27.668Z,6.98
2018-03-24T09:54:27.682Z,7.13
2018-03-24T09:55:13.044Z,7.15
2018-03-24T09:56:13.058Z,7.12
2018-03-24T09:57:13.076Z,7.24
2018-03-24T09:58:13.200Z,7.39
2018-03-24T09:59:12.853Z,7.49
2018-03-24T10:00:12.872Z,7.61
2018-03-24T10:01:13.151Z,7.79
2018-03-24T10:02:13.217Z,7.85
2018-03-24T10:03:13.193Z,7.93
2018-03-24T10:04:12.941Z,8.02
2018-03-24T10:05:13.222Z,8.12
2018-03-24T10:06:12.977Z,8.38
2018-03-24T10:07:27.914Z,8.45
2018-03-24T10:08:13.280Z,8.4
2018-03-24T10:09:13.293Z,8.65
2018-03-24T10:10:13.052Z,8.65
2018-03-24T10:11:13.326Z,8.5
2018-03-24T10:12:13.091Z,8.37
2018-03-24T10:13:13.360Z,8.34
2018-03-24T10:14:13.380Z,8.34
2018-03-24T10:15:13.399Z,8.38
2018-03-24T10:16:12.954Z,8.43
2018-03-24T10:19:13.469Z,8.41
2018-03-24T10:20:13.488Z,8.44
2018-03-24T10:21:13.249Z,8.56
2018-03-24T10:22:13.272Z,8.56
2018-03-24T10:23:13.553Z,8.74
2018-03-24T10:24:28.224Z,8.87
2018-03-24T10:25:13.583Z,8.89
2018-03-24T10:26:28.258Z,8.74
2018-03-24T10:27:28.277Z,8.79
2018-03-24T10:28:13.636Z,8.66
2018-03-24T10:29:13.666Z,8.71
2018-03-24T10:30:13.673Z,8.86
2018-03-24T10:31:13.430Z,8.89
2018-03-24T10:33:28.394Z,8.95
2018-03-24T10:34:13.753Z,9.05
2018-03-24T10:35:13.769Z,8.77
2018-03-24T10:36:13.525Z,8.79
2018-03-24T10:37:13.810Z,8.68
2018-03-24T10:38:13.827Z,8.5
2018-03-24T10:39:28.504Z,8.62
2018-03-24T10:40:28.522Z,8.94
2018-03-24T10:41:28.606Z,9.05
2018-03-24T10:42:28.558Z,8.92
2018-03-24T10:43:13.917Z,8.95
2018-03-24T10:44:13.684Z,9.08
2018-03-24T10:45:13.961Z,9.11
2018-03-24T10:46:13.717Z,9.21
2018-03-24T10:47:13.994Z,9.2
2018-03-24T10:48:14.028Z,9.24
2018-03-24T10:49:28.432Z,9.29
2018-03-24T10:50:14.058Z,9.32
2018-03-24T10:52:14.095Z,9.18
2018-03-24T10:53:13.857Z,9.01
2018-03-24T10:54:14.135Z,8.91
2018-03-24T10:55:14.154Z,8.84
2018-03-24T10:56:14.167Z,8.83
2018-03-24T10:57:28.844Z,8.79
2018-03-24T10:58:14.204Z,8.79
2018-03-24T10:59:14.226Z,8.86
2018-03-24T11:00:14.251Z,8.68
2018-03-24T11:01:14.262Z,8.56
2018-03-24T11:02:14.287Z,8.56
2018-03-24T11:03:14.298Z,8.5
2018-03-24T11:04:14.375Z,8.55
2018-03-24T11:05:28.998Z,8.5
2018-03-24T11:06:14.354Z,8.52
2018-03-24T11:07:14.380Z,8.68
2018-03-24T11:09:14.415Z,8.8
2018-03-24T11:10:14.434Z,8.86
2018-03-24T11:11:14.456Z,8.74
2018-03-24T11:12:14.473Z,8.76
2018-03-24T11:13:14.495Z,8.89
2018-03-24T11:14:14.502Z,8.81
2018-03-24T11:15:14.268Z,8.68
2018-03-24T11:16:14.280Z,8.5
2018-03-24T11:17:14.561Z,8.47
2018-03-24T11:18:14.061Z,8.48
2018-03-24T11:21:14.641Z,8.41
2018-03-24T11:22:14.396Z,8.41
2018-03-24T11:23:14.674Z,8.43
2018-03-24T11:24:14.693Z,8.41
2018-03-24T11:25:14.461Z,8.43
2018-03-24T11:26:14.732Z,8.44
2018-03-24T11:27:14.749Z,8.41
2018-03-24T11:28:14.772Z,8.38
2018-03-24T11:29:14.528Z,8.47
2018-03-24T11:30:29.205Z,8.37
2018-03-24T11:31:14.822Z,8.4
2018-03-24T11:32:14.846Z,8.4
2018-03-24T11:33:14.868Z,8.55
2018-03-24T11:34:14.889Z,8.74
2018-03-24T11:35:14.899Z,8.84
2018-03-24T11:37:14.675Z,8.79
2018-03-24T11:38:14.702Z,8.68
2018-03-24T11:39:14.987Z,8.71
2018-03-24T11:40:14.731Z,8.7
2018-03-24T11:41:15.017Z,8.76
2018-03-24T11:42:15.035Z,8.8
2018-03-24T11:43:15.046Z,8.86
2018-03-24T11:44:29.724Z,8.79
2018-03-24T11:46:15.104Z,8.83
2018-03-24T11:47:15.130Z,8.7
2018-03-24T11:48:15.149Z,8.59
2018-03-24T11:50:15.018Z,8.73
2018-03-24T11:51:14.991Z,8.86
2018-03-24T11:53:15.234Z,9.11
2018-03-24T11:54:14.993Z,9.17
2018-03-24T11:55:29.935Z,9.26
2018-03-24T11:56:15.370Z,9.31
2018-03-24T11:57:15.052Z,9.33
2018-03-24T11:58:15.069Z,9.26
2018-03-24T11:59:15.404Z,9.15
2018-03-24T12:00:30.027Z,9.28
2018-03-24T12:01:15.385Z,9.26
2018-03-24T12:03:15.162Z,9.36
2018-03-24T12:04:15.441Z,9.43
2018-03-24T12:05:15.466Z,9.43
2018-03-24T12:06:15.477Z,9.51
2018-03-24T12:09:15.538Z,9.61
2018-03-24T12:10:15.561Z,9.71
2018-03-24T12:11:15.574Z,9.69
2018-03-24T12:12:15.693Z,9.64
2018-03-24T12:13:15.369Z,9.42
2018-03-24T12:14:15.379Z,9.47
2018-03-24T12:15:15.402Z,9.66
2018-03-24T12:16:15.672Z,9.78
2018-03-24T12:17:15.445Z,9.72
2018-03-24T12:18:30.110Z,9.94
2018-03-24T12:19:15.471Z,10.05
2018-03-24T12:20:15.753Z,9.91
2018-03-24T12:21:15.768Z,10.01
2018-03-24T12:22:15.918Z,10.08
2018-03-24T12:23:15.806Z,10.05
2018-03-24T12:25:15.854Z,10.02
2018-03-24T12:26:15.348Z,9.96
2018-03-24T12:27:15.935Z,9.86
2018-03-24T12:28:30.568Z,9.83
2018-03-24T12:29:15.945Z,9.81
2018-03-24T12:30:15.942Z,9.69
2018-03-24T12:31:15.708Z,9.86
2018-03-24T12:32:15.980Z,9.96
2018-03-24T12:33:16.002Z,10.07
2018-03-24T12:34:16.022Z,10.04
2018-03-24T12:35:15.783Z,9.93
2018-03-24T12:36:15.802Z,9.93
2018-03-24T12:37:16.087Z,9.97
2018-03-24T12:38:16.101Z,9.86
2018-03-24T12:39:16.121Z,9.56
2018-03-24T12:41:16.160Z,9.79
2018-03-24T12:42:16.179Z,10.07
2018-03-24T12:43:16.301Z,10.29
2018-03-24T12:44:16.267Z,10.17
2018-03-24T12:45:16.245Z,10.47
2018-03-24T12:46:16.258Z,10.89
2018-03-24T12:47:16.019Z,10.99
2018-03-24T12:48:30.958Z,10.6
2018-03-24T12:49:16.320Z,10.47
2018-03-24T12:51:16.363Z,10.76
2018-03-24T12:52:16.120Z,10.85
2018-03-24T12:53:16.141Z,10.86
2018-03-24T12:55:31.100Z,10.88
2018-03-24T12:56:16.462Z,10.86
2018-03-24T12:57:16.227Z,11.04
2018-03-24T12:58:16.502Z,11.1
2018-03-24T12:59:16.526Z,10.82
2018-03-24T13:00:16.542Z,10.61
2018-03-24T13:01:16.561Z,10.48
2018-03-24T13:02:16.580Z,10.66
2018-03-24T13:03:16.612Z,10.68
2018-03-24T13:04:16.625Z,10.68
2018-03-24T13:05:16.382Z,10.68
2018-03-24T13:06:16.404Z,10.42
2018-03-24T13:07:16.683Z,10.38
2018-03-24T13:08:16.704Z,10.38
2018-03-24T13:09:16.465Z,10.25
2018-03-24T13:11:16.772Z,10.07
2018-03-24T13:12:16.534Z,10.07
2018-03-24T13:13:16.286Z,9.99
2018-03-24T13:14:16.581Z,10.09
2018-03-24T13:15:16.843Z,10.08
2018-03-24T13:16:16.869Z,10.14
2018-03-24T13:17:31.549Z,9.96
2018-03-24T13:18:16.907Z,9.76
2018-03-24T13:19:16.923Z,9.47
2018-03-24T13:20:16.944Z,9.18
2018-03-24T13:22:16.986Z,9.36
2018-03-24T13:23:16.747Z,9.74
2018-03-24T13:24:17.024Z,9.75
2018-03-24T13:25:17.046Z,9.78
2018-03-24T13:26:17.065Z,9.89
2018-03-24T13:27:31.756Z,9.84
2018-03-24T13:28:17.111Z,9.97
2018-03-24T13:29:17.126Z,10.2
2018-03-24T13:30:17.144Z,10.27
2018-03-24T13:31:16.909Z,10.47
2018-03-24T13:32:31.853Z,10.61
2018-03-24T13:33:17.207Z,10.47
2018-03-24T13:34:17.244Z,10.74
2018-03-24T13:35:17.244Z,10.82
2018-03-24T13:36:17.273Z,10.92
2018-03-24T13:37:17.288Z,10.96
2018-03-24T13:38:17.308Z,11.03
2018-03-24T13:39:17.334Z,11.07
2018-03-24T13:40:17.355Z,10.91
2018-03-24T13:41:17.369Z,10.91
2018-03-24T13:42:17.393Z,10.91
2018-03-24T13:43:32.070Z,10.73
2018-03-24T13:44:17.452Z,10.86
2018-03-24T13:45:17.454Z,10.92
2018-03-24T13:46:17.214Z,10.85
2018-03-24T13:47:17.492Z,10.86
2018-03-24T13:48:17.509Z,11.03
2018-03-24T13:49:17.534Z,10.92
2018-03-24T13:50:17.557Z,10.59
2018-03-24T13:51:17.578Z,10.33
2018-03-24T13:52:17.336Z,10.23
2018-03-24T13:53:17.612Z,10.27
2018-03-24T13:54:17.636Z,10.25
2018-03-24T13:55:17.656Z,10.27
2018-03-24T13:56:17.683Z,10.36
2018-03-24T13:58:17.461Z,10.2
2018-03-24T14:00:17.754Z,10.08
2018-03-24T14:01:17.777Z,10.14
2018-03-24T14:02:17.798Z,10.18
2018-03-24T14:04:17.843Z,10.3
2018-03-24T14:05:17.858Z,10.47
2018-03-24T14:06:17.625Z,10.51
2018-03-24T14:07:17.898Z,10.48
2018-03-24T14:08:17.920Z,10.63
2018-03-24T14:09:32.342Z,10.6
2018-03-24T14:10:17.958Z,10.67
2018-03-24T14:11:17.719Z,10.74
2018-03-24T14:12:18.001Z,10.94
2018-03-24T14:14:18.045Z,10.71
2018-03-24T14:15:32.460Z,10.85
2018-03-24T14:16:17.819Z,10.86
2018-03-24T14:17:18.104Z,10.99
2018-03-24T14:18:18.120Z,11.03
2018-03-24T14:19:17.885Z,11.02
2018-03-24T14:20:18.165Z,11.06
2018-03-24T14:21:18.186Z,11
2018-03-24T14:22:17.944Z,10.85
2018-03-24T14:23:32.881Z,10.85
2018-03-24T14:24:18.259Z,10.86